Time;durP1;ratioP1;P1;durP2;ratioP2;P2;SDS_P1;SDS_P2;PMS_P1;PMS_P2;Temp;Humidity;BMP_temperature;BMP_pressure;BME280_temperature;BME280_humidity;BME280_pressure;Samples;Min_cycle;Max_cycle;Signal;HPM_P1;HPM_P2
2021/07/29 00:01:40;;;;;;;1.50;0.90;;;18.20;98.20;;;;;;4970315;28;20477;-75
2021/07/29 00:04:07;;;;;;;1.50;0.90;;;18.20;98.20;;;;;;4983186;28;20465;-75
2021/07/29 00:06:35;;;;;;;1.50;0.90;;;18.10;98.20;;;;;;4977378;28;20884;-76
2021/07/29 00:09:02;;;;;;;1.50;0.90;;;18.10;98.20;;;;;;4986852;28;20468;-75
2021/07/29 00:11:29;;;;;;;1.50;0.90;;;18.10;98.20;;;;;;4973539;28;20977;-76
2021/07/29 00:13:59;;;;;;;1.50;0.90;;;18.00;98.20;;;;;;4988801;28;20460;-75
2021/07/29 00:16:27;;;;;;;1.50;0.90;;;17.90;98.20;;;;;;4973767;28;20488;-75
2021/07/29 00:19:03;;;;;;;1.50;0.90;;;17.90;98.20;;;;;;4987645;28;20511;-75
2021/07/29 00:21:31;;;;;;;1.50;0.90;;;17.90;98.20;;;;;;4972902;28;20481;-75
2021/07/29 00:23:59;;;;;;;1.50;0.90;;;17.80;98.20;;;;;;4987532;28;20461;-75
2021/07/29 00:26:26;;;;;;;1.50;0.90;;;17.80;98.20;;;;;;4975697;28;20664;-75
2021/07/29 00:28:55;;;;;;;1.50;0.90;;;17.80;98.20;;;;;;4981821;28;20610;-75
2021/07/29 00:31:28;;;;;;;1.50;0.90;;;17.80;98.20;;;;;;4975226;28;21031;-75
2021/07/29 00:33:55;;;;;;;1.50;1.00;;;17.80;98.20;;;;;;4987830;28;20468;-75
2021/07/29 00:36:22;;;;;;;1.50;0.90;;;17.80;98.20;;;;;;4977224;28;20483;-75
2021/07/29 00:38:49;;;;;;;1.53;1.00;;;17.80;98.20;;;;;;4983219;28;20457;-75
2021/07/29 00:41:18;;;;;;;1.50;0.90;;;17.80;98.20;;;;;;4972239;28;20481;-75
2021/07/29 00:43:45;;;;;;;1.50;0.90;;;17.80;98.20;;;;;;4969282;28;20465;-78
2021/07/29 00:46:14;;;;;;;1.50;1.00;;;17.70;98.20;;;;;;4979507;28;20496;-78
2021/07/29 00:48:41;;;;;;;1.50;0.93;;;17.70;98.20;;;;;;4987336;28;20469;-78
2021/07/29 00:51:08;;;;;;;1.50;0.90;;;17.70;98.20;;;;;;4979026;28;20476;-78
2021/07/29 00:53:35;;;;;;;1.50;0.90;;;17.70;98.20;;;;;;4971169;28;20837;-78
2021/07/29 00:56:02;;;;;;;1.50;0.90;;;17.60;98.20;;;;;;4976991;28;20461;-78
2021/07/29 00:58:31;;;;;;;1.50;1.00;;;17.60;98.20;;;;;;4985575;28;20491;-77
2021/07/29 01:00:57;;;;;;;1.50;1.00;;;17.60;98.20;;;;;;4980448;28;20464;-77
2021/07/29 01:03:25;;;;;;;1.50;0.90;;;17.60;98.20;;;;;;4985160;28;20879;-77
2021/07/29 01:05:51;;;;;;;1.50;0.90;;;17.60;98.20;;;;;;4979550;28;20976;-77
2021/07/29 01:08:18;;;;;;;1.50;0.90;;;17.60;98.20;;;;;;4987343;28;20484;-77
2021/07/29 01:10:45;;;;;;;1.53;1.00;;;17.50;98.20;;;;;;4990460;28;20469;-77
2021/07/29 01:13:11;;;;;;;1.50;1.00;;;17.40;98.20;;;;;;4975990;28;20483;-77
2021/07/29 01:15:39;;;;;;;1.50;1.00;;;17.40;98.20;;;;;;4992315;28;20464;-77
2021/07/29 01:18:06;;;;;;;1.50;0.97;;;17.30;98.20;;;;;;4978455;28;20492;-77
2021/07/29 01:20:35;;;;;;;1.50;0.90;;;17.30;98.20;;;;;;4990820;28;20476;-77
2021/07/29 01:23:01;;;;;;;1.50;1.00;;;17.30;98.20;;;;;;4979508;28;20508;-77
2021/07/29 01:25:28;;;;;;;1.53;1.00;;;17.20;98.20;;;;;;4991578;28;20480;-78
2021/07/29 01:27:55;;;;;;;1.57;1.00;;;17.20;98.20;;;;;;4979075;28;20484;-78
2021/07/29 01:30:21;;;;;;;1.50;1.00;;;17.20;98.20;;;;;;4991362;28;20471;-78
2021/07/29 01:32:48;;;;;;;1.53;1.00;;;17.10;98.20;;;;;;4972594;28;20879;-78
2021/07/29 01:35:15;;;;;;;1.50;0.90;;;17.10;98.20;;;;;;4989821;28;21009;-77
2021/07/29 01:37:43;;;;;;;1.50;1.00;;;17.10;98.20;;;;;;4960516;28;20497;-77
2021/07/29 01:40:11;;;;;;;1.50;0.90;;;17.10;98.20;;;;;;4988240;28;20472;-77
2021/07/29 01:42:38;;;;;;;1.50;0.90;;;17.10;98.20;;;;;;4975332;28;20486;-77
2021/07/29 01:45:05;;;;;;;1.50;0.90;;;17.10;98.20;;;;;;4989997;28;20472;-77
2021/07/29 01:47:32;;;;;;;1.50;0.97;;;17.10;98.20;;;;;;4974119;28;21075;-77
2021/07/29 01:49:59;;;;;;;1.50;1.00;;;17.10;98.20;;;;;;4983902;28;20801;-77
2021/07/29 01:52:25;;;;;;;1.50;0.90;;;17.10;98.20;;;;;;4975625;28;20487;-76
2021/07/29 01:54:53;;;;;;;1.50;1.00;;;17.10;98.20;;;;;;4988644;28;20468;-77
2021/07/29 01:57:22;;;;;;;1.50;1.00;;;17.00;98.20;;;;;;4974566;28;20497;-77
2021/07/29 01:59:49;;;;;;;1.50;1.00;;;16.90;98.20;;;;;;4977764;28;20461;-77
2021/07/29 02:02:15;;;;;;;1.50;1.00;;;16.90;98.20;;;;;;4976258;28;20473;-77
2021/07/29 02:04:42;;;;;;;1.50;0.97;;;16.80;98.20;;;;;;4986333;28;20477;-77
2021/07/29 02:07:09;;;;;;;1.53;1.00;;;16.80;98.20;;;;;;4977153;28;20752;-77
2021/07/29 02:09:35;;;;;;;1.50;1.00;;;16.80;98.20;;;;;;4987076;28;20465;-77
2021/07/29 02:12:04;;;;;;;1.50;1.00;;;16.80;98.20;;;;;;4977039;28;20485;-78
2021/07/29 02:14:31;;;;;;;1.50;1.00;;;16.80;98.20;;;;;;4984888;28;20470;-77
2021/07/29 02:16:57;;;;;;;1.50;1.00;;;16.80;98.20;;;;;;4971662;28;20567;-77
2021/07/29 02:19:24;;;;;;;1.50;1.00;;;16.70;98.20;;;;;;4981158;28;20458;-77
2021/07/29 02:21:51;;;;;;;1.50;1.00;;;16.70;98.20;;;;;;4972219;28;20473;-77
2021/07/29 02:24:18;;;;;;;1.50;1.00;;;16.60;98.20;;;;;;4985996;28;20673;-77
2021/07/29 02:26:45;;;;;;;1.50;0.90;;;16.60;98.20;;;;;;4971432;28;20480;-77
2021/07/29 02:29:13;;;;;;;1.50;1.00;;;16.60;98.20;;;;;;4974299;28;20817;-77
2021/07/29 02:31:39;;;;;;;1.50;0.90;;;16.60;98.20;;;;;;4974049;28;20493;-77
2021/07/29 02:34:06;;;;;;;1.50;1.00;;;16.50;98.20;;;;;;4982807;28;20829;-78
2021/07/29 02:36:33;;;;;;;1.50;1.00;;;16.50;98.20;;;;;;4977214;28;20885;-77
2021/07/29 02:39:00;;;;;;;1.50;1.00;;;16.40;98.20;;;;;;4981418;28;20461;-77
2021/07/29 02:41:26;;;;;;;1.50;1.00;;;16.30;98.20;;;;;;4978861;28;20624;-76
2021/07/29 02:43:53;;;;;;;1.57;1.00;;;16.30;98.20;;;;;;4982271;28;20478;-76
2021/07/29 02:46:21;;;;;;;1.50;1.00;;;16.20;98.20;;;;;;4978048;28;20485;-76
2021/07/29 02:48:48;;;;;;;1.50;1.00;;;16.20;98.20;;;;;;4983047;28;20971;-76
2021/07/29 02:51:15;;;;;;;1.50;1.00;;;16.20;98.20;;;;;;4978141;28;20995;-75
2021/07/29 02:53:41;;;;;;;1.50;0.90;;;16.20;98.20;;;;;;4984579;28;20465;-75
2021/07/29 02:56:09;;;;;;;1.50;1.00;;;16.20;98.20;;;;;;4973638;28;20496;-76
2021/07/29 02:58:36;;;;;;;1.50;0.93;;;16.20;98.20;;;;;;4987537;28;20530;-75
2021/07/29 03:01:03;;;;;;;1.53;1.00;;;16.20;98.20;;;;;;4972644;28;20493;-75
2021/07/29 03:03:31;;;;;;;1.60;1.00;;;16.20;98.20;;;;;;4970475;28;20465;-75
2021/07/29 03:05:58;;;;;;;1.57;1.00;;;16.20;98.20;;;;;;4973206;28;20493;-76
2021/07/29 03:08:25;;;;;;;1.57;1.00;;;16.20;98.20;;;;;;4971331;28;20477;-75
2021/07/29 03:10:52;;;;;;;1.50;0.90;;;16.20;98.20;;;;;;4976461;28;20819;-75
2021/07/29 03:13:19;;;;;;;1.60;1.00;;;16.20;98.20;;;;;;4982100;28;20462;-77
2021/07/29 03:15:46;;;;;;;1.50;0.97;;;16.10;98.20;;;;;;4990095;28;20484;-78
2021/07/29 03:18:13;;;;;;;1.53;0.90;;;16.10;98.20;;;;;;4961140;28;20481;-76
2021/07/29 03:20:42;;;;;;;1.50;1.00;;;16.10;98.20;;;;;;4982536;28;20891;-75
2021/07/29 03:23:09;;;;;;;1.50;1.00;;;16.10;98.20;;;;;;4976730;28;20501;-78
2021/07/29 03:25:36;;;;;;;1.50;0.90;;;16.10;98.20;;;;;;4988905;28;20968;-75
2021/07/29 03:28:04;;;;;;;1.50;0.90;;;16.00;98.20;;;;;;4970982;28;20815;-76
2021/07/29 03:30:31;;;;;;;1.57;1.00;;;16.00;98.20;;;;;;4984384;28;20867;-75
2021/07/29 03:32:57;;;;;;;1.57;1.00;;;16.00;98.20;;;;;;4975306;28;20484;-76
2021/07/29 03:35:25;;;;;;;1.53;1.00;;;16.00;98.20;;;;;;4987988;28;20886;-75
2021/07/29 03:37:53;;;;;;;1.57;1.00;;;16.00;98.20;;;;;;4976195;28;20496;-77
2021/07/29 03:40:19;;;;;;;1.53;1.00;;;16.00;98.20;;;;;;4987308;28;20973;-77
2021/07/29 03:42:46;;;;;;;1.50;1.00;;;16.00;98.20;;;;;;4975590;28;20477;-77
2021/07/29 03:45:13;;;;;;;1.50;0.90;;;16.00;98.20;;;;;;4986881;28;20844;-78
2021/07/29 03:47:40;;;;;;;1.57;1.00;;;16.00;98.20;;;;;;4973206;28;20520;-78
2021/07/29 03:50:08;;;;;;;1.50;1.00;;;16.00;98.20;;;;;;4985640;28;20850;-78
2021/07/29 03:52:37;;;;;;;1.53;1.00;;;16.00;98.20;;;;;;4972016;28;20481;-78
2021/07/29 03:55:06;;;;;;;1.50;1.00;;;16.00;98.20;;;;;;4987921;28;20986;-78
2021/07/29 03:57:33;;;;;;;1.50;0.90;;;16.00;98.20;;;;;;4966312;28;20861;-78
2021/07/29 04:00:01;;;;;;;1.57;1.00;;;16.10;98.20;;;;;;4986181;28;20465;-79
2021/07/29 04:02:28;;;;;;;1.50;1.00;;;16.10;98.20;;;;;;4967368;28;20917;-77
2021/07/29 04:04:54;;;;;;;1.50;1.00;;;16.10;98.20;;;;;;4980162;28;20575;-77
2021/07/29 04:07:21;;;;;;;1.50;1.00;;;16.10;98.20;;;;;;4974176;28;20540;-77
2021/07/29 04:09:48;;;;;;;1.53;0.90;;;16.20;98.20;;;;;;4985202;28;20469;-77
2021/07/29 04:12:16;;;;;;;1.50;0.90;;;16.20;98.20;;;;;;4972153;28;20482;-77
2021/07/29 04:14:43;;;;;;;1.50;1.00;;;16.20;98.20;;;;;;4985169;28;20469;-77
2021/07/29 04:17:10;;;;;;;1.50;0.90;;;16.30;98.20;;;;;;4973263;28;20490;-77
2021/07/29 04:19:37;;;;;;;1.50;0.90;;;16.30;98.20;;;;;;4986578;28;20472;-78
2021/07/29 04:22:06;;;;;;;1.53;1.00;;;16.30;98.20;;;;;;4975200;28;20494;-77
2021/07/29 04:24:33;;;;;;;1.50;0.93;;;16.30;98.20;;;;;;4993689;28;20465;-78
2021/07/29 04:27:01;;;;;;;1.50;1.00;;;16.30;98.20;;;;;;4980175;28;20485;-77
2021/07/29 04:29:32;;;;;;;1.50;0.90;;;16.30;98.20;;;;;;4988182;28;20513;-76
2021/07/29 04:31:59;;;;;;;1.50;1.00;;;16.30;98.20;;;;;;4976265;28;20984;-77
2021/07/29 04:34:26;;;;;;;1.50;1.00;;;16.30;98.20;;;;;;4988935;28;20461;-78
2021/07/29 04:36:53;;;;;;;1.50;1.00;;;16.30;98.20;;;;;;4972565;28;20492;-78
2021/07/29 04:39:20;;;;;;;1.50;1.00;;;16.30;98.20;;;;;;4989167;28;20944;-77
2021/07/29 04:41:47;;;;;;;1.50;1.00;;;16.30;98.20;;;;;;4976379;28;20472;-77
2021/07/29 04:44:15;;;;;;;1.53;1.00;;;16.30;98.20;;;;;;4983044;28;20457;-77
2021/07/29 04:46:44;;;;;;;1.50;0.97;;;16.30;98.20;;;;;;4978389;28;20551;-77
2021/07/29 04:49:12;;;;;;;1.50;1.00;;;16.30;98.20;;;;;;4985539;28;20460;-79
2021/07/29 04:51:40;;;;;;;1.50;1.00;;;16.40;98.20;;;;;;4973202;28;20604;-77
2021/07/29 04:54:07;;;;;;;1.50;0.93;;;16.40;98.20;;;;;;4985976;28;20616;-77
2021/07/29 04:56:34;;;;;;;1.57;1.00;;;16.40;98.20;;;;;;4974326;28;20493;-77
2021/07/29 04:59:00;;;;;;;1.50;0.90;;;16.50;98.20;;;;;;4981834;28;20568;-78
2021/07/29 05:01:27;;;;;;;1.50;1.00;;;16.50;98.20;;;;;;4980578;28;20489;-77
2021/07/29 05:03:55;;;;;;;1.53;1.00;;;16.50;98.20;;;;;;4983404;28;20516;-77
2021/07/29 05:06:22;;;;;;;1.50;0.90;;;16.60;98.20;;;;;;4967005;28;20888;-78
2021/07/29 05:08:49;;;;;;;1.53;1.00;;;16.70;98.20;;;;;;4972856;28;20466;-77
2021/07/29 05:11:16;;;;;;;1.50;0.90;;;16.70;98.20;;;;;;4977433;28;20475;-77
2021/07/29 05:13:42;;;;;;;1.50;0.90;;;16.70;98.20;;;;;;4986355;28;20587;-76
2021/07/29 05:16:09;;;;;;;1.50;1.00;;;16.80;98.20;;;;;;4980986;28;21020;-78
2021/07/29 05:18:37;;;;;;;1.50;0.93;;;16.80;98.20;;;;;;4989457;28;20480;-76
2021/07/29 05:21:06;;;;;;;1.50;1.00;;;16.80;98.20;;;;;;4979432;28;20480;-77
2021/07/29 05:23:33;;;;;;;1.57;0.97;;;16.90;98.20;;;;;;4982228;28;20464;-77
2021/07/29 05:26:01;;;;;;;1.57;0.97;;;17.00;98.20;;;;;;4981791;28;20475;-77
2021/07/29 05:28:28;;;;;;;1.50;0.90;;;17.10;98.20;;;;;;4989233;28;20881;-77
2021/07/29 05:30:55;;;;;;;1.50;0.93;;;17.10;98.20;;;;;;4982755;28;20480;-78
2021/07/29 05:33:22;;;;;;;1.50;1.00;;;17.20;98.20;;;;;;4984950;28;20471;-78
2021/07/29 05:35:48;;;;;;;1.53;0.90;;;17.20;98.20;;;;;;4980269;28;20869;-78
2021/07/29 05:38:16;;;;;;;1.50;0.90;;;17.30;98.20;;;;;;4974446;28;20485;-78
2021/07/29 05:40:43;;;;;;;1.50;1.00;;;17.40;98.20;;;;;;4987319;28;20460;-78
2021/07/29 05:43:10;;;;;;;1.50;0.90;;;17.50;98.20;;;;;;4959457;28;20485;-76
2021/07/29 05:45:36;;;;;;;1.60;1.10;;;17.60;98.20;;;;;;4986229;28;20540;-76
2021/07/29 05:48:06;;;;;;;1.50;1.00;;;17.60;98.20;;;;;;4976347;28;20478;-77
2021/07/29 05:50:33;;;;;;;1.50;0.90;;;17.60;98.20;;;;;;4989938;28;20468;-77
2021/07/29 05:53:01;;;;;;;1.50;0.90;;;17.70;98.20;;;;;;4976989;28;20620;-76
2021/07/29 05:55:29;;;;;;;1.53;1.00;;;17.70;98.20;;;;;;4987543;28;20563;-77
2021/07/29 05:57:55;;;;;;;1.50;1.00;;;17.80;98.20;;;;;;4977483;28;20799;-76
2021/07/29 06:00:22;;;;;;;1.50;0.90;;;17.80;98.20;;;;;;4988951;28;20469;-76
2021/07/29 06:02:49;;;;;;;1.50;0.90;;;17.90;98.20;;;;;;4959486;28;20488;-76
2021/07/29 06:05:16;;;;;;;1.50;0.97;;;18.00;98.20;;;;;;4989767;28;20894;-77
2021/07/29 06:07:42;;;;;;;1.50;1.00;;;18.00;98.20;;;;;;4979103;28;20473;-76
2021/07/29 06:10:11;;;;;;;1.50;0.90;;;18.10;98.20;;;;;;4989143;28;20485;-76
2021/07/29 06:12:39;;;;;;;1.50;0.90;;;18.10;98.20;;;;;;4965998;28;20785;-76
2021/07/29 06:15:07;;;;;;;1.50;1.00;;;18.20;98.20;;;;;;4987156;28;20763;-78
2021/07/29 06:17:36;;;;;;;1.50;0.90;;;18.20;98.20;;;;;;4963458;28;20890;-77
2021/07/29 06:20:06;;;;;;;1.50;0.90;;;18.40;98.20;;;;;;4986416;28;20465;-74
2021/07/29 06:22:33;;;;;;;1.50;0.90;;;18.70;98.20;;;;;;4970305;28;20535;-76
2021/07/29 06:25:00;;;;;;;1.50;0.90;;;18.90;97.70;;;;;;4986479;28;20468;-76
2021/07/29 06:27:27;;;;;;;1.50;0.90;;;19.10;97.00;;;;;;4979517;28;20504;-79
2021/07/29 06:29:55;;;;;;;1.60;1.00;;;19.20;95.50;;;;;;4985322;28;20519;-80
2021/07/29 06:32:21;;;;;;;1.50;0.90;;;19.30;95.20;;;;;;4971227;28;20488;-77
2021/07/29 06:34:48;;;;;;;1.50;1.00;;;19.40;94.30;;;;;;4985943;28;20820;-79
2021/07/29 06:37:15;;;;;;;1.50;0.90;;;19.40;94.40;;;;;;4964685;28;20484;-79
2021/07/29 06:39:42;;;;;;;1.50;0.90;;;19.50;94.30;;;;;;4982827;28;20861;-80
2021/07/29 06:42:08;;;;;;;1.53;0.90;;;19.70;94.90;;;;;;4973809;28;20894;-78
2021/07/29 06:44:35;;;;;;;1.53;0.90;;;19.90;93.50;;;;;;4976323;28;20691;-80
2021/07/29 06:47:06;;;;;;;1.53;1.00;;;20.10;93.20;;;;;;4974430;28;20480;-77
2021/07/29 06:49:35;;;;;;;1.50;0.90;;;20.30;92.90;;;;;;4988069;28;20465;-77
2021/07/29 06:52:02;;;;;;;1.53;0.90;;;20.60;93.50;;;;;;4974113;28;20784;-78
2021/07/29 06:54:28;;;;;;;1.50;0.90;;;20.80;91.30;;;;;;4980870;28;20948;-77
2021/07/29 06:56:55;;;;;;;1.53;0.90;;;20.90;90.10;;;;;;4973822;28;20701;-74
2021/07/29 06:59:22;;;;;;;1.50;0.90;;;21.00;90.00;;;;;;4986168;28;20465;-78
2021/07/29 07:01:49;;;;;;;1.50;0.90;;;21.20;88.60;;;;;;4975380;28;20476;-78
2021/07/29 07:04:17;;;;;;;1.50;0.90;;;21.30;89.10;;;;;;4983716;28;20460;-78
2021/07/29 07:06:44;;;;;;;1.50;0.90;;;21.50;88.10;;;;;;4966461;28;20861;-80
2021/07/29 07:09:11;;;;;;;1.60;1.00;;;21.70;87.20;;;;;;4976504;28;20653;-78
2021/07/29 07:11:38;;;;;;;1.50;0.90;;;21.90;85.50;;;;;;4973826;28;20492;-78
2021/07/29 07:14:06;;;;;;;1.50;0.90;;;21.90;85.30;;;;;;4980860;28;20473;-78
2021/07/29 07:16:33;;;;;;;1.53;0.90;;;21.80;85.90;;;;;;4968015;28;20493;-78
2021/07/29 07:19:00;;;;;;;1.50;0.90;;;21.90;85.70;;;;;;4972279;28;20472;-79
2021/07/29 07:21:28;;;;;;;1.50;0.90;;;21.90;85.00;;;;;;4969176;28;20495;-77
2021/07/29 07:23:55;;;;;;;1.50;0.90;;;21.80;84.10;;;;;;4976459;28;20496;-78
2021/07/29 07:26:24;;;;;;;1.50;0.90;;;21.60;84.70;;;;;;4971437;28;21015;-79
2021/07/29 07:28:51;;;;;;;1.53;0.90;;;21.60;85.80;;;;;;4978655;28;20492;-78
2021/07/29 07:31:19;;;;;;;1.50;0.90;;;21.70;85.00;;;;;;4967687;28;20556;-78
2021/07/29 07:33:46;;;;;;;1.50;0.90;;;21.90;85.70;;;;;;4967467;28;20472;-78
2021/07/29 07:36:13;;;;;;;1.50;0.90;;;22.00;84.30;;;;;;4974249;28;20507;-77
2021/07/29 07:38:41;;;;;;;1.50;0.90;;;22.20;84.40;;;;;;4981735;28;20465;-79
2021/07/29 07:41:08;;;;;;;1.50;0.90;;;22.20;83.30;;;;;;4972537;28;21138;-78
2021/07/29 07:43:36;;;;;;;1.50;0.90;;;22.30;83.50;;;;;;4980903;28;20473;-77
2021/07/29 07:46:05;;;;;;;1.50;0.90;;;22.40;83.80;;;;;;4972791;28;20610;-80
2021/07/29 07:48:32;;;;;;;1.50;0.83;;;22.50;83.40;;;;;;4977731;28;20640;-78
2021/07/29 07:50:59;;;;;;;1.50;0.90;;;22.50;82.30;;;;;;4970933;28;20536;-77
2021/07/29 07:53:28;;;;;;;1.50;0.90;;;22.60;83.90;;;;;;4979793;28;20981;-77
2021/07/29 07:55:58;;;;;;;1.50;0.90;;;22.70;81.90;;;;;;4970019;28;20811;-78
2021/07/29 07:58:24;;;;;;;1.50;0.90;;;22.80;82.00;;;;;;4980182;28;20489;-75
2021/07/29 08:00:51;;;;;;;1.50;0.90;;;22.90;81.10;;;;;;4974185;28;20935;-78
2021/07/29 08:03:18;;;;;;;1.50;0.90;;;22.80;81.40;;;;;;4981421;28;20828;-76
2021/07/29 08:05:44;;;;;;;1.50;0.90;;;22.80;81.20;;;;;;4976994;28;20468;-78
2021/07/29 08:08:11;;;;;;;1.50;0.90;;;22.70;81.30;;;;;;4951595;28;20485;-78
2021/07/29 08:10:40;;;;;;;1.50;0.90;;;22.70;81.80;;;;;;4980613;28;20469;-78
2021/07/29 08:13:08;;;;;;;1.50;0.90;;;22.80;81.10;;;;;;4967577;28;20489;-75
2021/07/29 08:15:35;;;;;;;1.50;0.90;;;22.90;82.10;;;;;;4983357;28;20461;-78
2021/07/29 08:18:02;;;;;;;1.50;0.90;;;23.00;81.70;;;;;;4970493;28;20516;-77
2021/07/29 08:20:29;;;;;;;1.50;0.90;;;23.20;80.70;;;;;;4981042;28;20483;-79
2021/07/29 08:22:57;;;;;;;1.50;0.90;;;23.30;81.00;;;;;;4968786;28;20483;-78
2021/07/29 08:25:24;;;;;;;1.50;0.90;;;23.20;81.40;;;;;;4984124;28;20496;-78
2021/07/29 08:27:52;;;;;;;1.60;1.00;;;23.10;80.20;;;;;;4971319;28;21386;-78
2021/07/29 08:30:21;;;;;;;1.50;0.90;;;22.90;81.00;;;;;;4982954;28;20488;-77
2021/07/29 08:32:48;;;;;;;1.50;0.90;;;22.60;81.80;;;;;;4963273;28;20591;-75
2021/07/29 08:35:15;;;;;;;1.50;0.90;;;22.40;82.90;;;;;;4983544;28;20820;-79
2021/07/29 08:37:45;;;;;;;1.50;0.90;;;22.20;82.20;;;;;;4964517;28;20507;-76
2021/07/29 08:40:13;;;;;;;1.50;0.90;;;22.00;82.70;;;;;;4981266;28;20503;-76
2021/07/29 08:42:39;;;;;;;1.50;0.90;;;21.80;83.10;;;;;;4966369;28;20946;-78
2021/07/29 08:45:08;;;;;;;1.50;0.90;;;21.60;83.60;;;;;;4983585;28;20472;-78
2021/07/29 08:47:36;;;;;;;1.50;0.90;;;21.60;83.60;;;;;;4970017;28;20891;-77
2021/07/29 08:50:05;;;;;;;1.50;0.90;;;21.80;84.40;;;;;;4978952;28;20583;-78
2021/07/29 08:52:32;;;;;;;1.50;1.00;;;22.10;84.00;;;;;;4955572;28;20497;-78
2021/07/29 08:55:00;;;;;;;1.50;1.00;;;22.40;82.20;;;;;;4981061;28;20473;-78
2021/07/29 08:57:28;;;;;;;1.50;0.90;;;22.70;81.60;;;;;;4972384;28;20507;-77
2021/07/29 08:59:55;;;;;;;1.53;0.90;;;23.10;81.70;;;;;;4980005;28;20639;-77
2021/07/29 09:02:25;;;;;;;1.50;0.90;;;23.40;79.60;;;;;;4970256;28;20594;-79
2021/07/29 09:05:09;;;;;;;1.50;0.90;;;23.60;78.10;;;;;;4984415;28;20469;-78
2021/07/29 09:07:37;;;;;;;1.50;0.90;;;23.80;78.10;;;;;;4973846;28;20939;-78
2021/07/29 09:10:17;;;;;;;1.50;0.90;;;23.90;77.70;;;;;;4987753;28;20468;-79
2021/07/29 09:12:44;;;;;;;1.50;0.90;;;24.10;76.90;;;;;;4973355;28;20485;-77
2021/07/29 09:15:19;;;;;;;1.50;0.90;;;24.30;75.20;;;;;;4986979;28;20465;-78
2021/07/29 09:17:46;;;;;;;1.50;0.90;;;24.50;76.00;;;;;;4976714;28;20483;-76
2021/07/29 09:20:19;;;;;;;1.60;1.00;;;24.60;76.90;;;;;;4988882;28;20456;-77
2021/07/29 09:22:49;;;;;;;1.50;0.90;;;24.70;76.10;;;;;;4972063;28;20511;-78
2021/07/29 09:25:17;;;;;;;1.50;0.90;;;24.70;74.10;;;;;;4984810;28;20475;-77
2021/07/29 09:27:46;;;;;;;1.50;0.90;;;24.50;75.20;;;;;;4971022;28;20492;-77
2021/07/29 09:30:20;;;;;;;1.50;0.90;;;24.60;75.90;;;;;;4983853;28;20468;-79
2021/07/29 09:33:00;;;;;;;1.50;0.90;;;24.40;73.60;;;;;;4976782;28;20525;-77
2021/07/29 09:35:42;;;;;;;1.50;0.90;;;24.30;75.40;;;;;;4986889;28;20461;-78
2021/07/29 09:38:13;;;;;;;1.50;0.90;;;24.30;76.10;;;;;;4970847;28;20863;-77
2021/07/29 09:40:45;;;;;;;1.50;0.80;;;24.40;76.80;;;;;;4986310;28;20547;-78
2021/07/29 09:43:14;;;;;;;1.50;0.80;;;24.60;76.70;;;;;;4960799;28;20492;-77
2021/07/29 09:45:42;;;;;;;1.50;0.90;;;24.70;74.80;;;;;;4983399;28;20484;-77
2021/07/29 09:48:12;;;;;;;1.50;0.90;;;24.70;75.00;;;;;;4958654;28;20492;-76
2021/07/29 09:50:42;;;;;;;1.50;0.80;;;24.50;75.70;;;;;;4985921;28;20464;-77
2021/07/29 09:53:09;;;;;;;1.50;0.90;;;24.60;75.60;;;;;;4972424;28;20481;-78
2021/07/29 09:55:36;;;;;;;1.50;0.80;;;24.60;74.50;;;;;;4988296;28;20534;-79
2021/07/29 09:58:03;;;;;;;1.50;0.90;;;24.70;73.90;;;;;;4975277;28;20484;-76
2021/07/29 10:00:43;;;;;;;1.50;0.90;;;24.70;73.00;;;;;;4985219;28;20472;-78
2021/07/29 10:03:10;;;;;;;1.50;0.83;;;24.80;71.90;;;;;;4974258;28;20496;-77
2021/07/29 10:05:48;;;;;;;1.50;0.90;;;24.80;71.40;;;;;;4982594;28;20469;-78
2021/07/29 10:08:21;;;;;;;1.50;0.90;;;24.70;72.20;;;;;;4959702;28;20511;-78
2021/07/29 10:10:49;;;;;;;1.50;0.90;;;24.50;73.40;;;;;;4984610;28;20465;-77
2021/07/29 10:13:15;;;;;;;1.50;0.90;;;24.40;72.60;;;;;;4982458;28;20846;-77
2021/07/29 10:15:43;;;;;;;1.50;0.90;;;24.30;72.20;;;;;;4987409;28;20469;-78
2021/07/29 10:18:11;;;;;;;1.50;0.83;;;24.20;73.00;;;;;;4971030;28;20861;-78
2021/07/29 10:20:40;;;;;;;1.50;0.90;;;24.30;72.20;;;;;;4984933;28;20461;-77
2021/07/29 10:23:51;;;;;;;1.50;0.80;;;24.50;73.50;;;;;;4970853;28;20523;-77
2021/07/29 10:26:17;;;;;;;1.50;0.90;;;24.60;72.60;;;;;;4972973;28;20554;-78
2021/07/29 10:28:44;;;;;;;1.50;0.87;;;24.80;72.40;;;;;;4982245;28;20672;-78
2021/07/29 10:31:13;;;;;;;1.50;0.80;;;25.00;71.40;;;;;;4975780;28;20477;-78
2021/07/29 10:33:42;;;;;;;1.43;0.80;;;25.10;70.40;;;;;;4984326;28;20472;-78
2021/07/29 10:36:30;;;;;;;1.50;0.90;;;25.20;71.70;;;;;;4977510;28;20887;-78
2021/07/29 10:39:06;;;;;;;1.40;0.80;;;25.30;71.80;;;;;;4987752;28;20523;-78
2021/07/29 10:41:51;;;;;;;1.50;0.83;;;25.40;70.00;;;;;;4973065;28;20520;-78
2021/07/29 10:44:47;;;;;;;1.50;0.80;;;25.10;70.50;;;;;;4985614;28;20476;-78
2021/07/29 10:47:18;;;;;;;1.50;0.83;;;24.80;71.50;;;;;;4972903;28;20477;-79
2021/07/29 10:50:20;;;;;;;1.50;0.90;;;24.50;70.60;;;;;;4980088;28;20669;-78
2021/07/29 10:52:48;;;;;;;1.50;0.90;;;24.30;71.40;;;;;;4974992;28;20851;-77
2021/07/29 10:55:18;;;;;;;1.50;0.90;;;24.00;72.60;;;;;;4985940;28;20544;-78
2021/07/29 10:58:01;;;;;;;1.50;0.90;;;23.90;73.20;;;;;;4968955;28;21031;-77
2021/07/29 11:00:28;;;;;;;1.50;0.90;;;23.80;73.10;;;;;;4979322;28;20480;-77
2021/07/29 11:02:56;;;;;;;1.47;0.80;;;23.90;73.70;;;;;;4956353;28;20481;-76
2021/07/29 11:05:30;;;;;;;1.50;0.90;;;24.10;73.70;;;;;;4982317;28;20643;-78
2021/07/29 11:07:57;;;;;;;1.50;0.80;;;24.40;73.90;;;;;;4969842;28;20524;-79
2021/07/29 11:10:29;;;;;;;1.50;0.90;;;24.50;71.50;;;;;;4979822;28;20497;-77
2021/07/29 11:12:56;;;;;;;1.50;0.90;;;24.50;71.80;;;;;;4953091;28;20936;-77
2021/07/29 11:15:23;;;;;;;1.50;0.90;;;24.50;72.70;;;;;;4984132;28;21040;-77
2021/07/29 11:17:50;;;;;;;1.43;0.80;;;24.80;72.70;;;;;;4969586;28;20645;-78
2021/07/29 11:20:27;;;;;;;1.47;0.90;;;24.90;72.00;;;;;;4981909;28;20461;-75
2021/07/29 11:22:55;;;;;;;1.43;0.80;;;25.10;71.50;;;;;;4954516;28;20548;-78
2021/07/29 11:25:22;;;;;;;1.50;0.80;;;25.30;69.60;;;;;;4981958;28;20555;-78
2021/07/29 11:27:50;;;;;;;1.50;0.83;;;25.50;69.30;;;;;;4953944;28;20493;-78
2021/07/29 11:30:16;;;;;;;1.43;0.83;;;25.50;68.50;;;;;;4982666;28;20493;-78
2021/07/29 11:32:45;;;;;;;1.50;0.87;;;25.30;69.00;;;;;;4966777;28;20880;-77
2021/07/29 11:35:16;;;;;;;1.50;0.90;;;25.20;70.00;;;;;;4980379;28;21003;-79
2021/07/29 11:37:44;;;;;;;1.40;0.80;;;25.20;69.60;;;;;;4972244;28;20500;-78
2021/07/29 11:40:22;;;;;;;1.50;0.90;;;25.20;70.00;;;;;;4982469;28;20776;-79
2021/07/29 11:42:51;;;;;;;1.47;0.80;;;25.10;70.80;;;;;;4959742;28;21042;-78
2021/07/29 11:45:24;;;;;;;1.50;0.90;;;25.10;70.70;;;;;;4983397;28;20469;-78
2021/07/29 11:47:50;;;;;;;1.50;0.80;;;25.30;70.30;;;;;;4969843;28;20488;-78
2021/07/29 11:50:17;;;;;;;1.47;0.83;;;25.40;70.20;;;;;;4978800;28;20501;-78
2021/07/29 11:52:52;;;;;;;1.47;0.90;;;25.30;71.40;;;;;;4965463;28;20556;-79
2021/07/29 11:55:20;;;;;;;1.43;0.83;;;25.40;70.90;;;;;;4979764;28;20492;-78
2021/07/29 11:57:47;;;;;;;1.50;0.90;;;25.30;71.70;;;;;;4968823;28;20539;-79
2021/07/29 12:00:26;;;;;;;1.50;0.90;;;25.30;72.40;;;;;;4978740;28;20476;-79
2021/07/29 12:02:53;;;;;;;1.50;0.90;;;25.20;71.30;;;;;;4968114;28;20526;-78
2021/07/29 12:05:20;;;;;;;1.50;0.80;;;25.10;72.00;;;;;;4979522;28;20476;-78
2021/07/29 12:07:48;;;;;;;1.50;0.80;;;24.90;71.20;;;;;;4969101;28;20520;-77
2021/07/29 12:10:18;;;;;;;1.50;0.90;;;24.70;71.50;;;;;;4979468;28;20493;-77
2021/07/29 12:12:45;;;;;;;1.50;0.83;;;24.50;72.50;;;;;;4968310;28;20484;-77
2021/07/29 12:15:16;;;;;;;1.50;0.80;;;24.40;73.40;;;;;;4982614;28;21120;-77
2021/07/29 12:17:43;;;;;;;1.47;0.90;;;24.40;73.20;;;;;;4971441;28;20504;-76
2021/07/29 12:20:12;;;;;;;1.47;0.90;;;24.50;73.50;;;;;;4982828;28;20923;-78
2021/07/29 12:22:41;;;;;;;1.50;0.80;;;24.50;71.90;;;;;;4969095;28;20501;-78
2021/07/29 12:25:11;;;;;;;1.50;0.90;;;24.50;72.90;;;;;;4983564;28;20467;-77
2021/07/29 12:27:44;;;;;;;1.50;0.80;;;24.80;72.40;;;;;;4969378;28;20493;-77
2021/07/29 12:30:35;;;;;;;1.40;0.80;;;25.00;71.40;;;;;;4982809;28;20484;-77
2021/07/29 12:33:07;;;;;;;1.40;0.90;;;25.40;70.50;;;;;;4966312;28;20499;-77
2021/07/29 12:35:34;;;;;;;1.47;0.83;;;25.70;69.30;;;;;;4983365;28;20464;-75
2021/07/29 12:38:01;;;;;;;1.43;0.80;;;25.90;68.60;;;;;;4969933;28;20512;-78
2021/07/29 12:40:30;;;;;;;1.43;0.90;;;25.90;68.50;;;;;;4984353;28;20467;-77
2021/07/29 12:43:17;;;;;;;1.50;0.90;;;25.90;68.60;;;;;;4967179;28;20567;-77
2021/07/29 12:45:49;;;;;;;1.50;0.90;;;25.70;68.40;;;;;;4985432;28;21018;-76
2021/07/29 12:48:16;;;;;;;1.43;0.80;;;25.70;68.90;;;;;;4959107;28;20710;-76
2021/07/29 12:50:42;;;;;;;1.47;0.90;;;25.80;69.20;;;;;;4983635;28;20489;-79
2021/07/29 12:53:13;;;;;;;1.43;0.80;;;26.00;68.50;;;;;;4953865;28;20598;-76
2021/07/29 12:55:42;;;;;;;1.47;0.90;;;25.90;65.30;;;;;;4982830;28;20469;-77